createdAt,value
2023-03-07T00:00:51.443Z,-3.57
2023-03-07T00:03:18.326Z,-3.58
2023-03-07T00:05:45.235Z,-3.57
2023-03-07T00:08:12.897Z,-3.56
2023-03-07T00:10:39.497Z,-3.59
2023-03-07T00:13:06.289Z,-3.57
2023-03-07T00:15:33.041Z,-3.55
2023-03-07T00:17:59.738Z,-3.52
2023-03-07T00:20:26.757Z,-3.50
2023-03-07T00:22:53.345Z,-3.49
2023-03-07T00:25:20.219Z,-3.50
2023-03-07T00:27:46.920Z,-3.50
2023-03-07T00:30:14.271Z,-3.52
2023-03-07T00:32:40.950Z,-3.49
2023-03-07T00:35:08.187Z,-3.47
2023-03-07T00:37:34.870Z,-3.47
2023-03-07T00:40:01.477Z,-3.46
2023-03-07T00:42:28.387Z,-3.48
2023-03-07T00:44:55.056Z,-3.46
2023-03-07T00:47:23.831Z,-3.47
2023-03-07T00:49:50.667Z,-3.49
2023-03-07T00:52:20.674Z,-3.48
2023-03-07T00:54:49.424Z,-3.42
2023-03-07T00:57:16.254Z,-3.43
2023-03-07T00:59:45.714Z,-3.41
2023-03-07T01:02:12.310Z,-3.41
2023-03-07T01:04:38.994Z,-3.34
2023-03-07T01:07:06.063Z,-3.31
2023-03-07T01:09:32.690Z,-2.93
2023-03-07T01:11:59.288Z,-2.81
2023-03-07T01:14:26.051Z,-2.78
2023-03-07T01:16:52.695Z,-2.58
2023-03-07T01:19:19.389Z,-2.53
2023-03-07T01:21:45.968Z,-2.41
2023-03-07T01:24:14.422Z,-2.46
2023-03-07T01:26:41.304Z,-2.42
2023-03-07T01:29:08.704Z,-2.31
2023-03-07T01:31:35.693Z,-2.18
2023-03-07T01:34:02.846Z,-2.20
2023-03-07T01:36:32.953Z,-2.15
2023-03-07T01:39:06.757Z,-2.14
2023-03-07T01:41:35.036Z,-2.04
2023-03-07T01:44:05.662Z,-2.03
2023-03-07T01:46:44.934Z,-1.96
2023-03-07T01:49:16.575Z,-1.86
2023-03-07T01:51:46.514Z,-1.88
2023-03-07T01:54:16.577Z,-1.90
2023-03-07T01:56:44.122Z,-1.78
2023-03-07T01:59:11.489Z,-1.86
2023-03-07T02:01:38.352Z,-1.75
2023-03-07T02:04:36.845Z,-1.82
2023-03-07T02:07:03.582Z,-1.86
2023-03-07T02:09:31.440Z,-1.84
2023-03-07T02:11:59.211Z,-1.79
2023-03-07T02:14:25.842Z,-1.92
2023-03-07T02:16:52.618Z,-1.93
2023-03-07T02:19:37.929Z,-1.85
2023-03-07T02:22:11.418Z,-1.89
2023-03-07T02:24:53.505Z,-1.88
2023-03-07T02:27:20.619Z,-1.90
2023-03-07T02:29:47.327Z,-1.83
2023-03-07T02:32:14.304Z,-1.83
2023-03-07T02:34:40.930Z,-1.76
2023-03-07T02:37:11.481Z,-1.71
2023-03-07T02:39:41.656Z,-1.66
2023-03-07T02:42:11.488Z,-1.68
2023-03-07T02:44:38.247Z,-1.67
2023-03-07T02:47:08.869Z,-1.74
2023-03-07T02:49:36.315Z,-1.62
2023-03-07T02:52:03.460Z,-1.62
2023-03-07T02:54:30.097Z,-1.52
2023-03-07T02:56:56.798Z,-1.61
2023-03-07T02:59:23.433Z,-1.60
2023-03-07T03:01:50.136Z,-1.47
2023-03-07T03:04:16.808Z,-1.50
2023-03-07T03:06:43.398Z,-1.43
2023-03-07T03:09:09.987Z,-1.41
2023-03-07T03:11:36.623Z,-1.42
2023-03-07T03:14:03.762Z,-1.36
2023-03-07T03:16:30.524Z,-1.28
2023-03-07T03:18:57.310Z,-1.35
2023-03-07T03:21:24.077Z,-1.29
2023-03-07T03:23:51.284Z,-1.32
2023-03-07T03:26:21.090Z,-1.30
2023-03-07T03:28:54.306Z,-1.33
2023-03-07T03:31:21.107Z,-1.25
2023-03-07T03:33:49.404Z,-1.11
2023-03-07T03:36:18.677Z,-1.12
2023-03-07T03:38:45.307Z,-1.21
2023-03-07T03:41:15.716Z,-1.17
2023-03-07T03:43:42.654Z,-1.11
2023-03-07T03:46:09.578Z,-1.06
2023-03-07T03:48:36.236Z,-1.07
2023-03-07T03:51:08.363Z,-1.02
2023-03-07T03:53:37.041Z,-0.93
2023-03-07T03:56:15.284Z,-1.00
2023-03-07T03:58:41.992Z,-0.99
2023-03-07T04:01:10.924Z,-0.89
2023-03-07T04:03:45.064Z,-0.95
2023-03-07T04:06:23.910Z,-0.88
2023-03-07T04:08:51.779Z,-0.95
2023-03-07T04:11:19.377Z,-0.97
2023-03-07T04:13:46.079Z,-0.86
2023-03-07T04:16:13.727Z,-0.80
2023-03-07T04:18:40.588Z,-0.85
2023-03-07T04:21:07.524Z,-0.77
2023-03-07T04:23:34.612Z,-0.73
2023-03-07T04:26:03.255Z,-0.78
2023-03-07T04:28:45.101Z,-0.62
2023-03-07T04:31:13.554Z,-0.60
2023-03-07T04:33:40.460Z,-0.56
2023-03-07T04:36:07.505Z,-0.52
2023-03-07T04:38:34.152Z,-0.55
2023-03-07T04:41:00.986Z,-0.50
2023-03-07T04:43:27.628Z,-0.54
2023-03-07T04:45:54.354Z,-0.52
2023-03-07T04:48:21.374Z,-0.45
2023-03-07T04:50:52.248Z,-0.43
2023-03-07T04:53:19.496Z,-0.47
2023-03-07T04:55:48.608Z,-0.43
2023-03-07T04:58:15.226Z,-0.39
2023-03-07T05:00:44.848Z,-0.37
2023-03-07T05:03:13.017Z,-0.32
2023-03-07T05:05:39.838Z,-0.31
2023-03-07T05:10:47.442Z,-0.25
2023-03-07T05:13:14.181Z,-0.32
2023-03-07T05:15:40.832Z,-0.16
2023-03-07T05:18:07.474Z,-0.20
2023-03-07T05:20:34.738Z,-0.12
2023-03-07T05:23:01.323Z,-0.12
2023-03-07T05:25:28.622Z,-0.05
2023-03-07T05:27:55.239Z,-0.07
2023-03-07T05:30:22.851Z,-0.01
2023-03-07T05:32:51.298Z,-0.04
2023-03-07T05:35:18.135Z,-0.03
2023-03-07T05:37:44.704Z,-0.01
2023-03-07T05:40:13.057Z,0.05
2023-03-07T05:42:39.643Z,0.08
2023-03-07T05:45:07.039Z,0.09
2023-03-07T05:47:33.736Z,0.12
2023-03-07T05:50:00.429Z,0.04
2023-03-07T05:52:27.916Z,0.08
2023-03-07T05:54:54.973Z,0.06
2023-03-07T05:57:22.477Z,0.16
2023-03-07T05:59:49.109Z,0.07
2023-03-07T06:02:15.781Z,0.14
2023-03-07T06:04:42.420Z,0.15
2023-03-07T06:07:09.064Z,0.16
2023-03-07T06:09:35.661Z,0.14
2023-03-07T06:12:02.243Z,0.16
2023-03-07T06:14:30.867Z,0.20
2023-03-07T06:16:57.506Z,0.17
2023-03-07T06:19:24.125Z,0.20
2023-03-07T06:21:50.772Z,0.17
2023-03-07T06:24:17.392Z,0.21
2023-03-07T06:26:44.052Z,0.23
2023-03-07T06:29:10.651Z,0.24
2023-03-07T06:31:37.266Z,0.24
2023-03-07T06:34:03.932Z,0.27
2023-03-07T06:36:30.578Z,0.27
2023-03-07T06:38:57.170Z,0.26
2023-03-07T06:41:23.810Z,0.27
2023-03-07T06:43:52.510Z,0.30
2023-03-07T06:46:20.540Z,0.28
2023-03-07T06:48:47.248Z,0.27
2023-03-07T06:51:14.079Z,0.23
2023-03-07T06:53:41.180Z,0.34
2023-03-07T06:56:07.913Z,0.40
2023-03-07T06:58:34.651Z,0.43
2023-03-07T07:01:01.394Z,0.48
2023-03-07T07:03:28.005Z,0.50
2023-03-07T07:05:54.643Z,0.52
2023-03-07T07:08:21.472Z,0.50
2023-03-07T07:10:48.093Z,0.61
2023-03-07T07:13:15.191Z,0.66
2023-03-07T07:15:41.993Z,0.63
2023-03-07T07:18:12.025Z,0.68
2023-03-07T07:20:38.738Z,0.74
2023-03-07T07:23:05.449Z,0.76
2023-03-07T07:25:32.250Z,0.81
2023-03-07T07:27:58.970Z,0.86
2023-03-07T07:30:25.753Z,0.87
2023-03-07T07:32:52.669Z,0.90
2023-03-07T07:35:19.397Z,0.90
2023-03-07T07:37:46.187Z,0.95
2023-03-07T07:40:13.422Z,0.89
2023-03-07T07:42:40.312Z,0.94
2023-03-07T07:45:07.650Z,0.99
2023-03-07T07:47:34.360Z,0.99
2023-03-07T07:50:01.066Z,0.97
2023-03-07T07:52:27.750Z,0.99
2023-03-07T07:54:54.682Z,0.99
2023-03-07T07:57:22.736Z,1.01
2023-03-07T07:59:49.587Z,1.03
2023-03-07T08:02:16.356Z,1.04
2023-03-07T08:04:43.199Z,1.07
2023-03-07T08:07:10.028Z,1.12
2023-03-07T08:09:37.154Z,1.25
2023-03-07T08:12:04.138Z,1.35
2023-03-07T08:14:33.651Z,1.45
2023-03-07T08:17:01.065Z,1.48
2023-03-07T08:19:27.880Z,1.52
2023-03-07T08:21:54.732Z,1.64
2023-03-07T08:24:29.296Z,1.69
2023-03-07T08:27:01.931Z,1.81
2023-03-07T08:29:28.723Z,1.93
2023-03-07T08:31:55.520Z,2.03
2023-03-07T08:34:22.236Z,2.09
2023-03-07T08:36:49.143Z,2.16
2023-03-07T08:39:15.885Z,2.32
2023-03-07T08:41:42.682Z,2.33
2023-03-07T08:44:09.902Z,2.39
2023-03-07T08:46:36.690Z,2.53
2023-03-07T08:49:03.365Z,2.63
2023-03-07T08:51:30.034Z,2.61
2023-03-07T08:53:57.938Z,2.63
2023-03-07T08:56:24.589Z,2.75
2023-03-07T08:58:54.551Z,2.81
2023-03-07T09:01:21.413Z,2.90
2023-03-07T09:03:48.236Z,2.96
2023-03-07T09:06:20.232Z,3.06
2023-03-07T09:08:50.388Z,3.15
2023-03-07T09:11:18.116Z,3.24
2023-03-07T09:13:51.885Z,3.35
2023-03-07T09:16:20.404Z,3.42
2023-03-07T09:18:47.088Z,3.30
2023-03-07T09:21:13.777Z,3.42
2023-03-07T09:23:40.407Z,3.49
2023-03-07T09:26:07.088Z,3.39
2023-03-07T09:28:34.298Z,3.43
2023-03-07T09:31:07.045Z,3.50
2023-03-07T09:33:33.761Z,3.46
2023-03-07T09:36:00.353Z,3.38
2023-03-07T09:38:26.937Z,3.27
2023-03-07T09:40:54.317Z,3.22
2023-03-07T09:43:26.817Z,3.28
2023-03-07T09:46:14.180Z,3.12
2023-03-07T09:49:05.180Z,3.12
2023-03-07T09:51:44.588Z,3.09
2023-03-07T09:54:20.754Z,3.17
2023-03-07T09:56:56.767Z,3.19
2023-03-07T09:59:42.102Z,3.16
2023-03-07T10:02:26.941Z,3.17
2023-03-07T10:05:10.293Z,3.14
2023-03-07T10:07:37.064Z,3.10
2023-03-07T10:10:12.228Z,3.01
2023-03-07T10:12:56.954Z,3.04
2023-03-07T10:15:45.988Z,3.18
2023-03-07T10:18:27.754Z,3.38
2023-03-07T10:21:07.783Z,3.45
2023-03-07T10:23:59.987Z,3.75
2023-03-07T10:26:42.352Z,4.09
2023-03-07T10:29:18.612Z,4.12
2023-03-07T10:31:54.124Z,4.12
2023-03-07T10:34:27.377Z,4.41
2023-03-07T10:37:08.794Z,4.64
2023-03-07T10:39:44.944Z,4.65
2023-03-07T10:42:12.407Z,4.73
2023-03-07T10:44:39.794Z,4.61
2023-03-07T10:47:06.584Z,4.58
2023-03-07T10:49:37.662Z,4.59
2023-03-07T10:52:20.223Z,4.37
2023-03-07T10:54:47.002Z,4.24
2023-03-07T10:57:16.367Z,4.23
2023-03-07T10:59:44.826Z,4.23
2023-03-07T11:02:35.949Z,4.14
2023-03-07T11:05:04.390Z,4.07
2023-03-07T11:07:34.454Z,4.09
2023-03-07T11:10:24.756Z,4.03
2023-03-07T11:12:51.604Z,4.11
2023-03-07T11:15:21.692Z,4.13
2023-03-07T11:17:48.984Z,4.14
2023-03-07T11:20:21.829Z,4.18
2023-03-07T11:22:49.233Z,4.32
2023-03-07T11:25:20.399Z,4.25
2023-03-07T11:27:53.228Z,4.34
2023-03-07T11:30:23.557Z,4.48
2023-03-07T11:33:00.276Z,4.52
2023-03-07T11:35:58.025Z,4.52
2023-03-07T11:38:36.817Z,4.51
2023-03-07T11:41:21.223Z,4.68
2023-03-07T11:44:17.349Z,4.67
2023-03-07T11:47:05.640Z,4.73
2023-03-07T11:49:39.271Z,4.80
2023-03-07T11:52:39.986Z,4.90
2023-03-07T11:55:25.392Z,4.78
2023-03-07T11:58:15.687Z,4.80
2023-03-07T12:01:11.806Z,4.59
2023-03-07T12:03:44.538Z,4.51
2023-03-07T12:06:20.725Z,4.34
2023-03-07T12:08:59.289Z,4.20
2023-03-07T12:12:04.328Z,3.91
2023-03-07T12:14:59.077Z,3.83
2023-03-07T12:17:33.171Z,3.62
2023-03-07T12:20:19.216Z,3.50
2023-03-07T12:23:18.355Z,3.26
2023-03-07T12:25:49.006Z,3.23
2023-03-07T12:28:18.937Z,3.20
2023-03-07T12:31:03.432Z,3.22
2023-03-07T12:33:47.061Z,3.31
2023-03-07T12:36:23.477Z,3.34
2023-03-07T12:38:58.792Z,3.34
2023-03-07T12:41:44.395Z,3.43
2023-03-07T12:44:16.981Z,3.45
2023-03-07T12:46:51.514Z,3.44
2023-03-07T12:49:37.892Z,3.41
2023-03-07T12:52:25.517Z,3.47
2023-03-07T12:54:59.228Z,3.50
2023-03-07T12:57:30.370Z,3.41
2023-03-07T12:59:58.776Z,3.36
2023-03-07T13:02:54.000Z,3.35
2023-03-07T13:05:21.351Z,3.30
2023-03-07T13:07:49.487Z,3.22
2023-03-07T13:10:21.633Z,3.14
2023-03-07T13:12:49.432Z,3.05
2023-03-07T13:15:18.909Z,3.15
2023-03-07T13:17:45.520Z,3.35
2023-03-07T13:20:14.995Z,3.51
2023-03-07T13:22:41.562Z,3.50
2023-03-07T13:25:20.712Z,3.60
2023-03-07T13:27:51.422Z,3.50
2023-03-07T13:30:23.405Z,3.55
2023-03-07T13:32:56.057Z,3.50
2023-03-07T13:35:29.002Z,3.48
2023-03-07T13:38:03.776Z,3.53
2023-03-07T13:40:36.966Z,3.57
2023-03-07T13:43:05.318Z,3.60
2023-03-07T13:45:37.918Z,3.51
2023-03-07T13:48:33.276Z,3.51
2023-03-07T13:51:02.851Z,3.53
2023-03-07T13:53:44.061Z,3.49
2023-03-07T13:56:16.693Z,3.47
2023-03-07T13:59:10.599Z,3.47
2023-03-07T14:01:44.403Z,3.50
2023-03-07T14:04:38.442Z,3.51
2023-03-07T14:07:28.320Z,3.47
2023-03-07T14:10:09.823Z,3.37
2023-03-07T14:12:58.088Z,3.39
2023-03-07T14:15:49.457Z,3.32
2023-03-07T14:18:25.753Z,2.85
2023-03-07T14:21:00.928Z,2.22
2023-03-07T14:23:51.112Z,1.97
2023-03-07T14:26:33.972Z,1.63
2023-03-07T14:29:22.229Z,1.49
2023-03-07T14:31:59.476Z,1.38
2023-03-07T14:34:34.332Z,1.36
2023-03-07T14:37:12.044Z,1.26
2023-03-07T14:39:59.837Z,1.31
2023-03-07T14:42:54.026Z,1.16
2023-03-07T14:45:35.851Z,1.17
2023-03-07T14:48:24.008Z,1.20
2023-03-07T14:50:50.916Z,1.28
2023-03-07T14:53:22.810Z,1.37
2023-03-07T14:55:52.096Z,1.47
2023-03-07T14:58:28.836Z,1.54
2023-03-07T15:01:00.965Z,1.61
2023-03-07T15:03:28.287Z,1.62
2023-03-07T15:05:57.350Z,1.61
2023-03-07T15:08:33.382Z,1.63
2023-03-07T15:11:04.454Z,1.72
2023-03-07T15:13:36.484Z,1.74
2023-03-07T15:16:06.770Z,1.68
2023-03-07T15:18:41.349Z,1.78
2023-03-07T15:21:08.653Z,1.72
2023-03-07T15:23:35.255Z,1.64
2023-03-07T15:26:10.833Z,1.75
2023-03-07T15:28:42.919Z,1.73
2023-03-07T15:31:10.332Z,1.77
2023-03-07T15:33:37.186Z,1.77
2023-03-07T15:36:06.834Z,1.79
2023-03-07T15:38:34.206Z,1.82
2023-03-07T15:41:00.890Z,1.75
2023-03-07T15:43:29.437Z,1.86
2023-03-07T15:46:02.204Z,1.81
2023-03-07T15:48:48.516Z,1.88
2023-03-07T15:51:17.746Z,1.85
2023-03-07T15:53:46.251Z,1.85
2023-03-07T15:56:36.858Z,1.85
2023-03-07T15:59:07.216Z,1.82
2023-03-07T16:01:33.867Z,1.86
2023-03-07T16:04:03.662Z,1.79
2023-03-07T16:06:38.032Z,1.65
2023-03-07T16:09:05.801Z,1.70
2023-03-07T16:11:33.045Z,1.61
2023-03-07T16:13:59.801Z,1.75
2023-03-07T16:16:29.259Z,1.73
2023-03-07T16:18:59.306Z,1.68
2023-03-07T16:21:26.536Z,1.55
2023-03-07T16:23:53.147Z,1.70
2023-03-07T16:26:22.302Z,1.60
2023-03-07T16:28:50.006Z,1.60
2023-03-07T16:31:18.002Z,1.52
2023-03-07T16:33:45.961Z,1.59
2023-03-07T16:36:14.006Z,1.52
2023-03-07T16:38:41.246Z,1.44
2023-03-07T16:41:19.525Z,1.42
2023-03-07T16:43:47.603Z,1.41
2023-03-07T16:46:16.807Z,1.31
2023-03-07T16:48:44.117Z,1.32
2023-03-07T16:51:21.867Z,1.29
2023-03-07T16:53:50.263Z,1.28
2023-03-07T16:56:25.182Z,1.26
2023-03-07T16:58:52.193Z,1.17
2023-03-07T17:01:18.783Z,1.12
2023-03-07T17:03:45.434Z,1.07
2023-03-07T17:06:16.614Z,1.06
2023-03-07T17:08:43.997Z,0.97
2023-03-07T17:11:24.913Z,0.91
2023-03-07T17:13:54.648Z,0.98
2023-03-07T17:16:21.610Z,1.04
2023-03-07T17:18:48.456Z,0.92
2023-03-07T17:21:17.302Z,0.91
2023-03-07T17:23:45.103Z,0.90
2023-03-07T17:26:27.808Z,0.92
2023-03-07T17:28:55.118Z,0.82
2023-03-07T17:31:21.761Z,0.82
2023-03-07T17:33:49.725Z,0.81
2023-03-07T17:36:16.547Z,0.86
2023-03-07T17:38:43.297Z,0.79
2023-03-07T17:41:09.948Z,0.78
2023-03-07T17:43:36.552Z,0.76
2023-03-07T17:46:08.302Z,0.86
2023-03-07T17:48:35.749Z,0.77
2023-03-07T17:51:08.009Z,0.77
2023-03-07T17:53:35.632Z,0.61
2023-03-07T17:56:10.687Z,0.78
2023-03-07T17:58:38.519Z,0.80
2023-03-07T18:01:08.972Z,0.74
2023-03-07T18:03:35.642Z,0.72
2023-03-07T18:06:02.208Z,0.73
2023-03-07T18:08:28.940Z,0.71
2023-03-07T18:11:02.844Z,0.71
2023-03-07T18:13:29.432Z,0.68
2023-03-07T18:15:57.350Z,0.67
2023-03-07T18:18:24.376Z,0.76
2023-03-07T18:20:58.441Z,0.63
2023-03-07T18:23:25.456Z,0.75
2023-03-07T18:25:59.846Z,0.66
2023-03-07T18:28:26.502Z,0.78
2023-03-07T18:31:00.299Z,0.72
2023-03-07T18:33:28.382Z,0.67
2023-03-07T18:35:55.789Z,0.72
2023-03-07T18:38:22.711Z,0.72
2023-03-07T18:40:49.363Z,0.77
2023-03-07T18:43:16.246Z,0.70
2023-03-07T18:45:53.027Z,0.71
2023-03-07T18:48:19.614Z,0.72
2023-03-07T18:51:02.263Z,0.70
2023-03-07T18:53:29.613Z,0.72
2023-03-07T18:55:56.325Z,0.56
2023-03-07T18:58:23.303Z,0.66
2023-03-07T19:00:51.083Z,0.69
2023-03-07T19:03:17.878Z,0.70
2023-03-07T19:05:45.846Z,0.76
2023-03-07T19:08:12.707Z,0.67
2023-03-07T19:10:39.540Z,0.69
2023-03-07T19:13:06.807Z,0.59
2023-03-07T19:15:34.114Z,0.62
2023-03-07T19:18:00.933Z,0.56
2023-03-07T19:20:27.756Z,0.68
2023-03-07T19:22:54.493Z,0.75
2023-03-07T19:25:21.179Z,0.73
2023-03-07T19:27:47.901Z,0.71
2023-03-07T19:30:15.330Z,0.64
2023-03-07T19:32:42.157Z,0.70
2023-03-07T19:35:08.827Z,0.67
2023-03-07T19:37:36.403Z,0.59
2023-03-07T19:40:03.225Z,0.59
2023-03-07T19:42:29.828Z,0.68
2023-03-07T19:44:56.648Z,0.71
2023-03-07T19:47:23.394Z,0.55
2023-03-07T19:49:50.242Z,0.67
2023-03-07T19:52:16.847Z,0.56
2023-03-07T19:54:45.414Z,0.60
2023-03-07T19:57:14.975Z,0.62
2023-03-07T19:59:41.815Z,0.53
2023-03-07T20:02:10.442Z,0.54
2023-03-07T20:04:37.035Z,0.53
2023-03-07T20:07:03.727Z,0.54
2023-03-07T20:09:30.346Z,0.51
2023-03-07T20:11:56.957Z,0.52
2023-03-07T20:14:23.628Z,0.38
2023-03-07T20:16:50.207Z,0.45
2023-03-07T20:19:16.971Z,0.43
2023-03-07T20:21:49.763Z,0.50
2023-03-07T20:24:18.479Z,0.50
2023-03-07T20:26:47.002Z,0.49
2023-03-07T20:29:14.283Z,0.45
2023-03-07T20:31:40.917Z,0.50
2023-03-07T20:34:07.602Z,0.33
2023-03-07T20:36:35.980Z,0.30
2023-03-07T20:39:07.751Z,0.38
2023-03-07T20:41:34.659Z,0.41
2023-03-07T20:44:03.953Z,0.32
2023-03-07T20:46:31.570Z,0.27
2023-03-07T20:48:59.722Z,0.26
2023-03-07T20:51:31.395Z,0.27
2023-03-07T20:54:00.264Z,0.31
2023-03-07T20:56:29.007Z,0.15
2023-03-07T20:58:56.965Z,0.28
2023-03-07T21:01:25.909Z,0.08
2023-03-07T21:03:53.958Z,0.01
2023-03-07T21:06:20.616Z,0.24
2023-03-07T21:08:47.677Z,0.06
2023-03-07T21:11:16.220Z,0.14
2023-03-07T21:13:44.681Z,0.04
2023-03-07T21:16:17.007Z,0.06
2023-03-07T21:18:44.046Z,-0.01
2023-03-07T21:21:16.023Z,0.03
2023-03-07T21:23:43.340Z,0.07
2023-03-07T21:26:16.561Z,-0.04
2023-03-07T21:28:43.324Z,0.13
2023-03-07T21:31:13.193Z,0.09
2023-03-07T21:33:44.646Z,0.07
2023-03-07T21:36:14.273Z,-0.02
2023-03-07T21:38:41.677Z,-0.12
2023-03-07T21:41:09.090Z,-0.16
2023-03-07T21:43:36.098Z,-0.03
2023-03-07T21:46:04.759Z,-0.06
2023-03-07T21:48:32.049Z,0.18
2023-03-07T21:50:59.383Z,0.08
2023-03-07T21:53:26.714Z,0.14
2023-03-07T21:55:55.154Z,-0.03
2023-03-07T21:58:22.496Z,-0.09
2023-03-07T22:00:52.275Z,-0.08
2023-03-07T22:03:19.282Z,-0.04
2023-03-07T22:05:46.025Z,-0.03
2023-03-07T22:08:13.078Z,-0.05
2023-03-07T22:10:40.007Z,-0.01
2023-03-07T22:13:07.083Z,-0.12
2023-03-07T22:15:34.365Z,-0.18
2023-03-07T22:18:01.115Z,-0.27
2023-03-07T22:20:27.768Z,-0.22
2023-03-07T22:22:54.373Z,-0.31
2023-03-07T22:25:21.160Z,-0.17
2023-03-07T22:27:47.736Z,-0.28
2023-03-07T22:30:14.648Z,-0.33
2023-03-07T22:32:44.576Z,-0.40
2023-03-07T22:35:11.591Z,-0.49
2023-03-07T22:37:38.324Z,-0.51
2023-03-07T22:40:06.201Z,-0.46
2023-03-07T22:42:32.782Z,-0.55
2023-03-07T22:44:59.362Z,-0.61
2023-03-07T22:47:26.157Z,-0.71
2023-03-07T22:49:52.730Z,-0.66
2023-03-07T22:52:19.290Z,-0.77
2023-03-07T22:54:46.203Z,-0.80
2023-03-07T22:57:12.813Z,-0.83
2023-03-07T22:59:39.475Z,-0.92
2023-03-07T23:02:06.282Z,-0.88
2023-03-07T23:04:33.111Z,-0.91
2023-03-07T23:07:02.420Z,-0.98
2023-03-07T23:09:31.416Z,-1.05
2023-03-07T23:11:58.032Z,-1.04
2023-03-07T23:14:24.729Z,-1.11
2023-03-07T23:16:54.378Z,-1.16
2023-03-07T23:19:20.986Z,-1.15
2023-03-07T23:21:47.575Z,-1.22
2023-03-07T23:24:14.160Z,-1.27
2023-03-07T23:26:41.053Z,-1.22
2023-03-07T23:29:10.134Z,-1.21
2023-03-07T23:31:38.781Z,-1.14
2023-03-07T23:34:14.791Z,-1.21
2023-03-07T23:36:41.737Z,-1.29
2023-03-07T23:39:08.503Z,-1.25
2023-03-07T23:41:35.168Z,-1.31
2023-03-07T23:44:02.184Z,-1.33
2023-03-07T23:46:29.578Z,-1.33
2023-03-07T23:48:56.803Z,-1.26
2023-03-07T23:51:23.882Z,-1.34
2023-03-07T23:53:50.655Z,-1.31
2023-03-07T23:56:17.584Z,-1.26
2023-03-07T23:58:44.529Z,-1.38
